Time;durP1;ratioP1;P1;durP2;ratioP2;P2;SDS_P1;SDS_P2;PMS_P1;PMS_P2;Temp;Humidity;BMP_temperature;BMP_pressure;BME280_temperature;BME280_humidity;BME280_pressure;Samples;Min_cycle;Max_cycle;Signal;HPM_P1;HPM_P2
2022/07/22 00:00:48;;;;;;;9.52;5.90;;;;;;;21.49;55.00;101101.50;5012212;28;20447;-71
2022/07/22 00:03:14;;;;;;;7.28;5.50;;;;;;;21.46;54.52;101105.53;5011017;28;20128;-71
2022/07/22 00:05:41;;;;;;;8.98;5.80;;;;;;;21.79;53.59;101107.94;5007325;28;20061;-71
2022/07/22 00:08:07;;;;;;;7.45;5.20;;;;;;;21.84;53.53;101113.59;5012319;28;20501;-71
2022/07/22 00:10:34;;;;;;;7.32;5.22;;;;;;;21.85;53.50;101107.06;5011430;28;20065;-71
2022/07/22 00:13:00;;;;;;;8.07;5.70;;;;;;;21.83;53.36;101109.16;5011964;28;20050;-71
2022/07/22 00:15:27;;;;;;;7.35;5.82;;;;;;;21.90;53.39;101108.28;5007374;28;20622;-71
2022/07/22 00:17:53;;;;;;;6.93;5.50;;;;;;;21.77;53.62;101109.19;5010944;28;20116;-71
2022/07/22 00:20:20;;;;;;;9.05;5.45;;;;;;;21.63;53.61;101116.69;5011025;28;20124;-70
2022/07/22 00:22:47;;;;;;;7.63;5.70;;;;;;;21.70;53.40;101113.91;5011047;28;20125;-71
2022/07/22 00:25:13;;;;;;;10.77;5.68;;;;;;;21.66;53.76;101115.41;5010114;28;20073;-71
2022/07/22 00:27:40;;;;;;;7.47;6.05;;;;;;;21.64;53.53;101112.91;5010169;28;20111;-69
2022/07/22 00:30:07;;;;;;;5.90;5.22;;;;;;;21.67;53.45;101117.94;5011741;28;20444;-71
2022/07/22 00:32:35;;;;;;;12.00;5.55;;;;;;;21.60;53.19;101122.63;5000614;28;20041;-71
2022/07/22 00:35:02;;;;;;;6.70;5.40;;;;;;;21.75;53.14;101114.06;5015048;28;20049;-71
2022/07/22 00:37:29;;;;;;;10.55;5.65;;;;;;;21.75;53.46;101125.00;5014885;28;20196;-69
2022/07/22 00:39:56;;;;;;;7.20;5.07;;;;;;;21.59;53.51;101121.75;5014587;28;20046;-70
2022/07/22 00:42:22;;;;;;;8.90;5.07;;;;;;;21.63;53.67;101122.16;5015058;28;20058;-71
2022/07/22 00:44:49;;;;;;;12.73;5.10;;;;;;;21.44;54.17;101120.44;5015308;28;20042;-70
2022/07/22 00:47:16;;;;;;;7.13;5.10;;;;;;;21.32;54.24;101123.91;5015400;28;20089;-70
2022/07/22 00:49:42;;;;;;;9.55;5.50;;;;;;;21.44;53.72;101123.16;5015375;28;20045;-70
2022/07/22 00:52:09;;;;;;;11.15;5.13;;;;;;;21.24;53.79;101121.44;5014914;28;20609;-69
2022/07/22 00:54:37;;;;;;;4.85;4.15;;;;;;;21.69;52.47;101126.72;5015154;28;20053;-70
2022/07/22 00:57:03;;;;;;;10.90;5.03;;;;;;;21.70;52.49;101124.81;5014985;28;20468;-70
2022/07/22 00:59:30;;;;;;;6.72;4.65;;;;;;;21.76;52.17;101124.75;5015333;28;20092;-71
2022/07/22 01:01:57;;;;;;;5.65;4.35;;;;;;;21.53;52.96;101127.31;5014648;28;20084;-71
2022/07/22 01:04:23;;;;;;;5.95;4.60;;;;;;;21.56;52.91;101137.75;5015059;28;20405;-69
2022/07/22 01:07:12;;;;;;;9.48;5.43;;;;;;;21.54;53.01;101129.81;5014260;28;20409;-70
2022/07/22 01:09:43;;;;;;;7.13;4.55;;;;;;;21.47;53.00;101126.28;4995376;28;20060;-70
2022/07/22 01:12:10;;;;;;;5.68;4.50;;;;;;;21.38;53.12;101119.44;4995436;28;20499;-70
2022/07/22 01:14:37;;;;;;;5.95;5.35;;;;;;;21.50;52.95;101125.03;4995113;28;20046;-70
2022/07/22 01:17:04;;;;;;;5.43;4.32;;;;;;;21.44;52.61;101128.63;4997810;28;20081;-69
2022/07/22 01:19:31;;;;;;;5.75;4.18;;;;;;;21.54;52.44;101126.25;5014213;28;20065;-69
2022/07/22 01:21:57;;;;;;;7.10;4.10;;;;;;;21.50;52.33;101125.03;5014193;28;20426;-69
2022/07/22 01:24:24;;;;;;;4.50;3.97;;;;;;;21.69;51.96;101123.16;5014498;28;20074;-70
2022/07/22 01:26:50;;;;;;;5.68;4.20;;;;;;;21.48;52.35;101125.22;5014310;28;20065;-69
2022/07/22 01:29:17;;;;;;;5.82;3.85;;;;;;;21.45;52.38;101113.91;5013696;28;20494;-69
2022/07/22 01:31:44;;;;;;;6.47;4.30;;;;;;;21.48;52.17;101122.50;5014379;28;20073;-69
2022/07/22 01:34:11;;;;;;;6.93;3.90;;;;;;;21.56;52.02;101127.69;5014437;28;20065;-69
2022/07/22 01:36:37;;;;;;;7.47;3.33;;;;;;;21.32;52.27;101118.44;5014168;28;20501;-70
2022/07/22 01:39:04;;;;;;;8.15;4.07;;;;;;;21.49;52.00;101120.59;5014121;28;20501;-69
2022/07/22 01:41:31;;;;;;;7.60;3.72;;;;;;;21.61;51.59;101118.81;5011661;28;20088;-70
2022/07/22 01:43:57;;;;;;;5.10;3.38;;;;;;;21.55;51.57;101119.72;5013920;28;20061;-71
2022/07/22 01:46:24;;;;;;;5.45;3.58;;;;;;;21.40;51.97;101120.06;5007987;28;20080;-70
2022/07/22 01:48:51;;;;;;;5.03;3.80;;;;;;;21.49;51.91;101126.06;5013472;28;20116;-71
2022/07/22 01:51:19;;;;;;;4.05;3.30;;;;;;;21.48;51.94;101119.75;5013867;28;20355;-71
2022/07/22 01:53:46;;;;;;;4.78;3.20;;;;;;;21.33;52.33;101119.28;5013242;28;20045;-70
2022/07/22 01:56:12;;;;;;;4.40;3.58;;;;;;;21.33;52.25;101122.84;5009779;28;20487;-70
2022/07/22 01:58:39;;;;;;;4.97;3.45;;;;;;;21.43;51.79;101121.50;5012709;28;20133;-70
2022/07/22 02:01:06;;;;;;;3.95;3.55;;;;;;;21.40;51.57;101116.50;5013988;28;20050;-70
2022/07/22 02:03:34;;;;;;;7.15;4.53;;;;;;;21.62;51.59;101126.78;5012851;28;20446;-70
2022/07/22 02:06:02;;;;;;;5.15;3.50;;;;;;;21.40;52.20;101121.97;5013069;28;20120;-71
2022/07/22 02:08:29;;;;;;;6.03;3.50;;;;;;;21.48;51.93;101117.03;5016626;28;20045;-70
2022/07/22 02:10:55;;;;;;;3.67;3.35;;;;;;;21.43;52.33;101121.50;5015754;28;20497;-70
2022/07/22 02:13:22;;;;;;;7.15;3.70;;;;;;;21.34;52.23;101124.50;5012775;28;20072;-70
2022/07/22 02:15:48;;;;;;;3.80;3.22;;;;;;;21.43;52.18;101124.25;5012064;28;20072;-70
2022/07/22 02:18:17;;;;;;;5.82;3.88;;;;;;;21.35;52.32;101125.31;5013212;28;20562;-70
2022/07/22 02:20:45;;;;;;;4.63;3.40;;;;;;;21.41;52.29;101134.53;5011357;28;20080;-70
2022/07/22 02:23:12;;;;;;;4.68;3.35;;;;;;;21.36;51.98;101133.31;5013344;28;20129;-70
2022/07/22 02:25:40;;;;;;;5.43;3.50;;;;;;;21.32;52.34;101129.38;5011391;28;20080;-70
2022/07/22 02:28:07;;;;;;;6.30;3.63;;;;;;;21.35;52.22;101126.16;5012186;28;20441;-70
2022/07/22 02:30:34;;;;;;;5.10;3.97;;;;;;;21.32;52.44;101131.22;5012535;28;20054;-70
2022/07/22 02:33:01;;;;;;;6.63;3.63;;;;;;;21.31;52.08;101132.28;5012015;28;20070;-69
2022/07/22 02:35:27;;;;;;;5.10;4.00;;;;;;;21.27;52.54;101129.16;5012332;28;20129;-70
2022/07/22 02:37:56;;;;;;;7.80;3.92;;;;;;;21.34;52.29;101126.41;5012898;28;20088;-70
2022/07/22 02:40:22;;;;;;;7.30;4.20;;;;;;;21.34;52.36;101129.94;5011572;28;20128;-70
2022/07/22 02:42:49;;;;;;;6.00;4.28;;;;;;;21.22;52.74;101126.28;5011249;28;20042;-70
2022/07/22 02:45:16;;;;;;;5.90;4.90;;;;;;;21.30;52.75;101127.91;5013300;28;20133;-70
2022/07/22 02:47:51;;;;;;;5.90;4.03;;;;;;;21.18;52.85;101135.13;5013210;28;20072;-70
2022/07/22 02:50:18;;;;;;;9.13;4.88;;;;;;;21.14;52.93;101127.38;5011071;28;20081;-70
2022/07/22 02:52:44;;;;;;;7.68;4.60;;;;;;;21.14;52.82;101132.81;5012890;28;20128;-70
2022/07/22 02:55:11;;;;;;;6.53;4.68;;;;;;;21.31;52.42;101124.09;5012366;28;20073;-70
2022/07/22 02:57:38;;;;;;;6.25;4.30;;;;;;;21.24;52.47;101135.06;5011060;28;20060;-70
2022/07/22 03:00:08;;;;;;;6.47;4.38;;;;;;;21.21;52.77;101135.50;5012332;28;20068;-70
2022/07/22 03:02:35;;;;;;;8.35;4.40;;;;;;;21.26;52.83;101127.50;5012350;28;20138;-70
2022/07/22 03:05:03;;;;;;;7.82;4.40;;;;;;;21.03;53.13;101133.50;5011461;28;20518;-70
2022/07/22 03:07:29;;;;;;;5.78;4.15;;;;;;;21.08;52.92;101133.69;5011046;28;20077;-70
2022/07/22 03:09:57;;;;;;;8.35;4.22;;;;;;;21.10;53.03;101134.28;5012145;28;20049;-70
2022/07/22 03:12:28;;;;;;;7.43;4.82;;;;;;;21.01;53.40;101137.50;5010674;28;20050;-70
2022/07/22 03:14:54;;;;;;;8.57;4.40;;;;;;;21.02;53.25;101136.47;5011915;28;20066;-70
2022/07/22 03:17:21;;;;;;;6.68;4.20;;;;;;;21.01;53.54;101140.22;5011472;28;20136;-70
2022/07/22 03:19:48;;;;;;;5.47;4.38;;;;;;;21.05;53.15;101127.84;5011769;28;20371;-70
2022/07/22 03:22:14;;;;;;;8.48;5.97;;;;;;;21.12;53.23;101136.84;5011542;28;20088;-70
2022/07/22 03:24:41;;;;;;;6.40;4.80;;;;;;;21.01;53.16;101141.09;5010686;28;20124;-70
2022/07/22 03:27:07;;;;;;;5.57;4.47;;;;;;;21.04;53.50;101132.47;5011290;28;20474;-70
2022/07/22 03:29:34;;;;;;;7.97;4.95;;;;;;;20.91;53.93;101136.09;5011763;28;20096;-70
2022/07/22 03:32:01;;;;;;;6.95;5.38;;;;;;;20.89;53.93;101131.91;5010981;28;20133;-70
2022/07/22 03:34:27;;;;;;;7.28;5.55;;;;;;;20.85;54.11;101141.59;5011096;28;20484;-70
2022/07/22 03:36:53;;;;;;;7.88;5.05;;;;;;;20.87;53.83;101144.91;5011382;28;20398;-70
2022/07/22 03:39:20;;;;;;;8.48;5.22;;;;;;;20.78;54.08;101149.81;5011041;28;20046;-70
2022/07/22 03:41:47;;;;;;;12.10;5.20;;;;;;;20.68;54.50;101153.00;5010003;28;20092;-70
2022/07/22 03:44:13;;;;;;;6.60;5.90;;;;;;;20.79;54.23;101148.75;5011243;28;20072;-70
2022/07/22 03:46:39;;;;;;;6.75;5.13;;;;;;;20.87;53.91;101156.69;5011265;28;20076;-70
2022/07/22 03:49:06;;;;;;;10.18;7.20;;;;;;;20.93;53.91;101163.16;5011412;28;20453;-70
2022/07/22 03:51:33;;;;;;;6.47;5.15;;;;;;;20.67;54.55;101161.41;5012199;28;20128;-70
2022/07/22 03:54:00;;;;;;;9.48;5.05;;;;;;;20.71;54.38;101156.34;5011179;28;20171;-70
2022/07/22 03:56:27;;;;;;;9.73;6.90;;;;;;;20.91;54.44;101160.66;5011310;28;20561;-70
2022/07/22 03:58:53;;;;;;;10.00;6.20;;;;;;;20.77;54.37;101160.94;5010566;28;20068;-70
2022/07/22 04:01:20;;;;;;;9.02;7.05;;;;;;;20.60;55.40;101152.44;5009857;28;20045;-70
2022/07/22 04:03:48;;;;;;;9.15;6.28;;;;;;;20.72;54.86;101158.84;5010749;28;20050;-70
2022/07/22 04:06:16;;;;;;;8.75;7.38;;;;;;;20.64;55.85;101157.22;5011385;28;20138;-70
2022/07/22 04:08:42;;;;;;;10.50;7.82;;;;;;;20.47;55.85;101166.09;5013194;28;20045;-70
2022/07/22 04:11:09;;;;;;;9.82;7.28;;;;;;;20.46;55.78;101161.72;5018798;28;20156;-70
2022/07/22 04:13:36;;;;;;;12.40;8.32;;;;;;;20.57;55.84;101155.56;5015042;28;20092;-70
2022/07/22 04:16:03;;;;;;;9.68;6.93;;;;;;;20.46;55.89;101165.25;5014550;28;20076;-70
2022/07/22 04:18:30;;;;;;;8.15;5.18;;;;;;;20.39;55.47;101165.25;5014918;28;20050;-70
2022/07/22 04:20:57;;;;;;;18.10;9.90;;;;;;;20.57;55.52;101164.59;5014532;28;20042;-70
2022/07/22 04:23:23;;;;;;;6.10;5.45;;;;;;;20.72;54.44;101160.75;5014931;28;20133;-70
2022/07/22 04:25:50;;;;;;;7.78;5.38;;;;;;;20.87;53.91;101158.56;5015046;28;20066;-70
2022/07/22 04:28:17;;;;;;;10.05;6.35;;;;;;;21.04;53.85;101159.75;5015245;28;20447;-70
2022/07/22 04:30:44;;;;;;;7.93;5.55;;;;;;;20.96;53.40;101153.69;5015411;28;20161;-70
2022/07/22 04:33:10;;;;;;;8.65;6.88;;;;;;;21.13;53.27;101158.44;5015032;28;20081;-70
2022/07/22 04:35:37;;;;;;;6.20;5.53;;;;;;;20.89;53.59;101162.75;5014761;28;20069;-70
2022/07/22 04:38:04;;;;;;;7.68;6.88;;;;;;;21.03;53.16;101165.41;5014727;28;20129;-70
2022/07/22 04:40:30;;;;;;;6.97;6.25;;;;;;;20.96;53.70;101164.59;5014650;28;20069;-70
2022/07/22 04:42:57;;;;;;;10.38;9.27;;;;;;;21.17;52.86;101158.84;5014773;28;20046;-70
2022/07/22 04:45:23;;;;;;;11.63;9.55;;;;;;;21.10;53.11;101164.31;5013926;28;20560;-70
2022/07/22 04:47:50;;;;;;;11.05;9.52;;;;;;;20.94;53.58;101166.72;5014289;28;20065;-70
2022/07/22 04:50:16;;;;;;;8.18;5.65;;;;;;;20.97;53.59;101158.91;5015544;28;20072;-70
2022/07/22 04:52:43;;;;;;;9.43;7.30;;;;;;;20.97;53.42;101171.72;5013879;28;20046;-70
2022/07/22 04:55:15;;;;;;;13.45;8.82;;;;;;;20.94;53.63;101172.16;5014832;28;20053;-70
2022/07/22 04:57:41;;;;;;;8.32;6.15;;;;;;;20.91;53.58;101171.56;5013773;28;20069;-70
2022/07/22 05:00:08;;;;;;;7.93;6.32;;;;;;;21.15;52.73;101174.59;5013618;28;20052;-70
2022/07/22 05:02:35;;;;;;;7.40;5.55;;;;;;;21.08;52.99;101169.16;5013751;28;20125;-70
2022/07/22 05:05:01;;;;;;;8.65;7.05;;;;;;;21.13;53.04;101163.91;5014473;28;20550;-70
2022/07/22 05:07:28;;;;;;;9.45;5.53;;;;;;;21.05;53.13;101158.69;5013357;28;20049;-70
2022/07/22 05:09:54;;;;;;;10.00;6.10;;;;;;;20.99;53.34;101169.63;5013402;28;20061;-70
2022/07/22 05:12:21;;;;;;;7.93;6.10;;;;;;;20.96;53.60;101170.06;5013002;28;20042;-70
2022/07/22 05:14:47;;;;;;;11.35;8.80;;;;;;;21.07;53.73;101172.09;5014907;28;20046;-70
2022/07/22 05:17:13;;;;;;;7.63;6.30;;;;;;;20.82;53.72;101164.69;5011210;28;20405;-70
2022/07/22 05:19:41;;;;;;;10.18;8.55;;;;;;;21.01;53.60;101173.81;5013359;28;20045;-70
2022/07/22 05:22:08;;;;;;;8.32;6.28;;;;;;;21.01;53.21;101170.22;5013146;28;20133;-70
2022/07/22 05:24:35;;;;;;;7.80;5.47;;;;;;;21.15;52.91;101166.44;5012852;28;20486;-70
2022/07/22 05:27:02;;;;;;;13.15;8.15;;;;;;;21.02;53.91;101166.47;5013902;28;20402;-70
2022/07/22 05:29:29;;;;;;;6.68;5.60;;;;;;;20.99;53.41;101173.19;5013371;28;20074;-70
2022/07/22 05:31:56;;;;;;;10.32;6.72;;;;;;;21.08;53.21;101168.34;5013669;28;20078;-69
2022/07/22 05:34:22;;;;;;;11.13;6.47;;;;;;;21.03;53.52;101170.88;5006343;28;20126;-70
2022/07/22 05:36:49;;;;;;;8.20;6.18;;;;;;;21.04;53.07;101175.25;5014777;28;20052;-70
2022/07/22 05:39:16;;;;;;;7.55;6.13;;;;;;;21.13;52.75;101173.97;5013638;28;20108;-69
2022/07/22 05:41:42;;;;;;;9.05;6.47;;;;;;;20.99;53.26;101175.09;5015265;28;20048;-70
2022/07/22 05:44:09;;;;;;;17.13;9.68;;;;;;;21.27;52.86;101167.38;5015222;28;20486;-70
2022/07/22 05:46:35;;;;;;;11.23;7.30;;;;;;;21.10;53.23;101175.22;5013850;28;20057;-71
2022/07/22 05:49:02;;;;;;;14.07;8.38;;;;;;;20.76;54.39;101168.25;5013483;28;20042;-69
2022/07/22 05:51:29;;;;;;;11.05;6.68;;;;;;;20.69;54.19;101175.63;5013420;28;20076;-69
2022/07/22 05:53:55;;;;;;;8.60;7.05;;;;;;;20.75;54.27;101173.94;5011965;28;20067;-70
2022/07/22 05:56:22;;;;;;;9.95;6.55;;;;;;;20.58;54.25;101182.59;5013342;28;20137;-69
2022/07/22 05:58:48;;;;;;;8.90;6.40;;;;;;;20.79;53.78;101177.91;5012890;28;20124;-71
2022/07/22 06:01:15;;;;;;;13.77;8.52;;;;;;;20.99;53.66;101175.91;5012646;28;20070;-71
2022/07/22 06:03:41;;;;;;;7.82;6.40;;;;;;;20.74;54.04;101185.91;5011559;28;20054;-71
2022/07/22 06:06:08;;;;;;;10.80;8.68;;;;;;;20.76;54.05;101181.06;5011394;28;20129;-69
2022/07/22 06:08:35;;;;;;;11.20;7.40;;;;;;;20.74;53.69;101177.75;5012583;28;20133;-71
2022/07/22 06:11:02;;;;;;;9.07;6.35;;;;;;;21.10;52.73;101183.41;5013539;28;20041;-70
2022/07/22 06:13:29;;;;;;;10.82;7.32;;;;;;;21.08;52.94;101181.97;5013258;28;20132;-70
2022/07/22 06:15:55;;;;;;;13.68;7.45;;;;;;;21.16;52.48;101181.72;5013751;28;20069;-71
2022/07/22 06:18:22;;;;;;;9.32;6.82;;;;;;;21.14;52.43;101186.56;5012295;28;20132;-71
2022/07/22 06:20:49;;;;;;;8.07;7.28;;;;;;;21.38;51.88;101196.69;5012923;28;20117;-71
2022/07/22 06:23:15;;;;;;;10.35;6.57;;;;;;;21.11;52.43;101195.19;5013360;28;20073;-69
2022/07/22 06:25:42;;;;;;;8.55;6.63;;;;;;;21.09;52.67;101191.81;5012418;28;20124;-69
2022/07/22 06:28:11;;;;;;;8.05;6.60;;;;;;;21.23;52.27;101192.59;5012660;28;20058;-69
2022/07/22 06:30:39;;;;;;;8.30;6.55;;;;;;;21.35;51.87;101186.19;5013707;28;20057;-70
2022/07/22 06:33:06;;;;;;;13.38;6.38;;;;;;;21.52;51.90;101180.22;5012392;28;20046;-71
2022/07/22 06:35:32;;;;;;;14.45;8.88;;;;;;;21.28;52.54;101184.59;5011602;28;20045;-70
2022/07/22 06:37:59;;;;;;;8.20;6.53;;;;;;;21.08;53.10;101187.44;5012820;28;20046;-69
2022/07/22 06:40:35;;;;;;;9.45;6.28;;;;;;;21.40;51.98;101182.00;5012832;28;20041;-70
2022/07/22 06:43:03;;;;;;;9.45;6.63;;;;;;;21.59;51.22;101181.00;5012243;28;20580;-70
2022/07/22 06:45:30;;;;;;;10.88;7.65;;;;;;;21.73;51.07;101177.09;5012031;28;20065;-70
2022/07/22 06:47:57;;;;;;;12.35;7.43;;;;;;;21.67;51.43;101177.16;5011250;28;20137;-70
2022/07/22 06:50:24;;;;;;;8.07;5.15;;;;;;;21.54;51.63;101178.09;5010963;28;20064;-71
2022/07/22 06:52:52;;;;;;;7.95;6.47;;;;;;;21.48;51.94;101181.72;5012193;28;20053;-70
2022/07/22 06:55:19;;;;;;;11.57;6.55;;;;;;;21.52;51.67;101182.94;5013408;28;20077;-69
2022/07/22 06:57:45;;;;;;;11.02;6.65;;;;;;;21.48;51.92;101181.72;5011985;28;20426;-71
2022/07/22 07:00:12;;;;;;;11.30;7.35;;;;;;;21.62;51.61;101191.47;5012135;28;20547;-71
2022/07/22 07:02:39;;;;;;;7.75;6.63;;;;;;;21.65;51.42;101179.28;5012515;28;20121;-70
2022/07/22 07:05:06;;;;;;;9.48;6.72;;;;;;;21.62;51.35;101178.66;5012248;28;20049;-71
2022/07/22 07:07:45;;;;;;;12.40;8.05;;;;;;;22.03;50.14;101176.44;5010726;28;20545;-70
2022/07/22 07:10:15;;;;;;;10.45;6.47;;;;;;;22.05;49.97;101175.16;5011873;28;20050;-71
2022/07/22 07:12:41;;;;;;;12.25;6.25;;;;;;;22.02;49.87;101175.59;5010862;28;20446;-71
2022/07/22 07:15:09;;;;;;;8.75;6.15;;;;;;;22.53;48.92;101179.06;5011539;28;20420;-70
2022/07/22 07:17:54;;;;;;;9.00;6.63;;;;;;;23.10;47.58;101176.84;5010711;28;20091;-71
2022/07/22 07:20:21;;;;;;;7.10;5.53;;;;;;;22.54;48.64;101180.75;5007529;28;20515;-70
2022/07/22 07:22:47;;;;;;;8.90;5.70;;;;;;;22.46;48.85;101186.47;5011905;28;20092;-70
2022/07/22 07:25:15;;;;;;;8.52;5.88;;;;;;;22.58;48.48;101187.41;5011339;28;20073;-70
2022/07/22 07:27:50;;;;;;;9.23;6.57;;;;;;;23.11;47.26;101188.63;5012009;28;20475;-70
2022/07/22 07:30:16;;;;;;;7.82;5.22;;;;;;;22.81;47.43;101181.25;5011867;28;20049;-70
2022/07/22 07:32:43;;;;;;;9.88;5.68;;;;;;;22.94;47.34;101185.69;5012034;28;21242;-70
2022/07/22 07:35:10;;;;;;;7.25;5.75;;;;;;;22.96;47.58;101184.41;5012056;28;20073;-70
2022/07/22 07:37:36;;;;;;;5.97;5.07;;;;;;;22.65;48.05;101179.97;5011065;28;20137;-70
2022/07/22 07:40:04;;;;;;;10.07;6.95;;;;;;;22.97;47.61;101177.03;5011870;28;20399;-70
2022/07/22 07:42:31;;;;;;;6.57;5.28;;;;;;;23.20;46.90;101179.88;5011709;28;20128;-70
2022/07/22 07:44:57;;;;;;;5.68;4.90;;;;;;;22.89;47.55;101191.03;5011202;28;20494;-70
2022/07/22 07:47:24;;;;;;;8.13;4.65;;;;;;;23.06;47.38;101186.59;5010845;28;20417;-70
2022/07/22 07:49:50;;;;;;;7.50;5.65;;;;;;;22.88;47.43;101178.41;5004718;28;20120;-70
2022/07/22 07:52:17;;;;;;;6.78;4.72;;;;;;;22.86;47.58;101186.03;5011565;28;20129;-70
2022/07/22 07:54:45;;;;;;;6.75;5.45;;;;;;;23.57;46.65;101187.09;5011034;28;20152;-70
2022/07/22 07:57:31;;;;;;;6.82;4.57;;;;;;;24.11;44.86;101182.41;5011376;28;20406;-71
2022/07/22 07:59:58;;;;;;;6.78;4.22;;;;;;;24.50;44.04;101180.81;5011136;28;20046;-70
2022/07/22 08:02:24;;;;;;;6.72;4.82;;;;;;;23.57;45.79;101187.09;5011080;28;20140;-70
2022/07/22 08:04:51;;;;;;;6.88;5.10;;;;;;;23.25;46.81;101181.91;5011407;28;20096;-70
2022/07/22 08:07:24;;;;;;;6.95;4.72;;;;;;;23.32;46.41;101185.38;5012008;28;20121;-70
2022/07/22 08:09:52;;;;;;;6.45;4.53;;;;;;;23.21;46.57;101184.28;5011974;28;20360;-70
2022/07/22 08:12:38;;;;;;;14.25;4.82;;;;;;;23.87;44.78;101190.63;5010851;28;20057;-71
2022/07/22 08:15:06;;;;;;;7.93;5.00;;;;;;;23.74;44.93;101185.31;5012230;28;20069;-71
2022/07/22 08:17:34;;;;;;;8.38;5.18;;;;;;;23.93;44.89;101189.66;5012413;28;20427;-71
2022/07/22 08:20:03;;;;;;;6.70;4.65;;;;;;;23.75;45.13;101178.81;5012927;28;20490;-71
2022/07/22 08:22:30;;;;;;;7.55;4.22;;;;;;;23.91;44.62;101185.50;5012996;28;20053;-71
2022/07/22 08:24:56;;;;;;;9.45;4.53;;;;;;;23.96;44.64;101196.59;5013144;28;20050;-71
2022/07/22 08:27:23;;;;;;;6.85;4.40;;;;;;;23.87;44.62;101187.88;5013245;28;20046;-71
2022/07/22 08:29:50;;;;;;;4.22;3.83;;;;;;;23.97;44.21;101187.28;5014099;28;20050;-71
2022/07/22 08:32:16;;;;;;;7.40;4.22;;;;;;;23.52;45.20;101189.72;5011648;28;20073;-71
2022/07/22 08:34:43;;;;;;;5.18;3.88;;;;;;;23.41;45.60;101191.38;5012602;28;20057;-71
2022/07/22 08:37:10;;;;;;;5.40;3.95;;;;;;;23.55;45.26;101198.28;5011963;28;20140;-71
2022/07/22 08:39:36;;;;;;;7.72;3.75;;;;;;;23.18;45.98;101190.22;5011836;28;20555;-71
2022/07/22 08:42:03;;;;;;;5.05;3.85;;;;;;;22.68;47.16;101193.19;5010802;28;20046;-71
2022/07/22 08:44:31;;;;;;;4.80;3.97;;;;;;;22.87;46.35;101196.72;5012256;28;20046;-71
2022/07/22 08:46:59;;;;;;;5.53;3.80;;;;;;;22.88;46.74;101190.22;5012057;28;20575;-71
2022/07/22 08:49:46;;;;;;;6.13;3.50;;;;;;;23.10;46.05;101197.91;5012016;28;20049;-71
2022/07/22 08:52:13;;;;;;;4.35;3.88;;;;;;;22.67;47.20;101199.72;5011373;28;20073;-71
2022/07/22 08:54:39;;;;;;;5.28;3.35;;;;;;;22.91;46.77;101194.34;5012106;28;20137;-71
2022/07/22 08:57:05;;;;;;;6.47;3.80;;;;;;;22.93;46.60;101205.91;5015845;28;20086;-71
2022/07/22 08:59:32;;;;;;;5.50;3.20;;;;;;;23.00;46.71;101209.41;5014163;28;20411;-71
2022/07/22 09:02:07;;;;;;;5.75;3.55;;;;;;;23.08;46.50;101203.59;5014808;28;20050;-70
2022/07/22 09:04:57;;;;;;;4.00;3.40;;;;;;;23.04;46.52;101202.38;5013803;28;20045;-70
2022/07/22 09:07:36;;;;;;;5.63;3.92;;;;;;;23.07;46.18;101199.19;5014439;28;20088;-70
2022/07/22 09:10:09;;;;;;;4.50;3.97;;;;;;;22.96;46.78;101197.25;5013384;28;20132;-70
2022/07/22 09:12:55;;;;;;;6.60;4.43;;;;;;;22.65;47.76;101196.38;5009703;28;20136;-70
2022/07/22 09:15:27;;;;;;;7.00;4.00;;;;;;;23.12;46.76;101196.66;5015456;28;20069;-71
2022/07/22 09:17:55;;;;;;;4.55;4.15;;;;;;;23.33;46.31;101197.16;5007465;28;20049;-71
2022/07/22 09:20:29;;;;;;;5.50;4.03;;;;;;;23.15;46.48;101198.06;5012823;28;20045;-71
2022/07/22 09:22:56;;;;;;;7.95;4.03;;;;;;;23.77;45.10;101200.50;5014513;28;20124;-71
2022/07/22 09:25:32;;;;;;;4.90;3.40;;;;;;;23.21;46.21;101199.88;5005676;28;20069;-70
2022/07/22 09:28:06;;;;;;;9.63;3.58;;;;;;;23.59;45.42;101196.75;5013550;28;20069;-71
2022/07/22 09:30:45;;;;;;;11.95;3.38;;;;;;;23.57;45.68;101204.34;5014230;28;20442;-70
2022/07/22 09:33:12;;;;;;;5.32;2.90;;;;;;;23.41;45.93;101210.53;5013500;28;20482;-70
2022/07/22 09:35:39;;;;;;;5.35;2.80;;;;;;;23.39;45.78;101207.19;5014018;28;20124;-71
2022/07/22 09:38:12;;;;;;;3.13;2.40;;;;;;;23.44;45.54;101215.53;5012697;28;20073;-71
2022/07/22 09:40:42;;;;;;;2.72;2.17;;;;;;;23.41;46.08;101216.00;5011068;28;20510;-72
2022/07/22 09:43:17;;;;;;;4.03;1.75;;;;;;;23.52;45.51;101215.19;5014723;28;20088;-70
2022/07/22 09:46:10;;;;;;;2.20;1.98;;;;;;;23.69;45.39;101218.91;5005961;28;20077;-71
2022/07/22 09:48:40;;;;;;;1.80;1.70;;;;;;;23.39;45.79;101212.66;5020298;28;20042;-71
2022/07/22 09:51:07;;;;;;;4.07;1.80;;;;;;;23.76;45.06;101223.50;5013761;28;20053;-71
2022/07/22 09:53:34;;;;;;;3.13;1.52;;;;;;;23.49;45.46;101229.34;5014285;28;20065;-70
2022/07/22 09:56:03;;;;;;;1.95;1.77;;;;;;;23.30;45.91;101222.28;5013431;28;20041;-70
2022/07/22 09:58:30;;;;;;;2.10;1.90;;;;;;;23.38;45.61;101230.16;5013270;28;20113;-70
2022/07/22 10:01:05;;;;;;;2.65;2.10;;;;;;;23.36;45.72;101232.28;5014080;28;20069;-71
2022/07/22 10:03:36;;;;;;;2.17;1.85;;;;;;;23.38;45.68;101224.69;5012957;28;20050;-71
2022/07/22 10:06:05;;;;;;;4.03;2.38;;;;;;;23.25;46.49;101223.81;5012549;28;20103;-71
2022/07/22 10:08:32;;;;;;;3.70;2.35;;;;;;;23.28;46.73;101222.50;5013337;28;20120;-71
2022/07/22 10:11:03;;;;;;;2.20;2.00;;;;;;;23.63;45.72;101227.25;5012732;28;20104;-71
2022/07/22 10:13:31;;;;;;;4.25;2.25;;;;;;;23.74;45.33;101224.53;5012972;28;20054;-71
2022/07/22 10:15:59;;;;;;;4.32;2.70;;;;;;;24.15;44.42;101227.44;5012837;28;20137;-69
2022/07/22 10:18:29;;;;;;;2.53;2.33;;;;;;;24.58;43.59;101227.09;5012182;28;20433;-70
2022/07/22 10:21:06;;;;;;;3.25;2.50;;;;;;;24.75;43.11;101216.19;5011596;28;20037;-70
2022/07/22 10:23:33;;;;;;;10.02;6.00;;;;;;;24.89;43.02;101216.75;5011870;28;20128;-70
2022/07/22 10:26:02;;;;;;;3.47;3.17;;;;;;;24.76;42.76;101222.50;5012497;28;20049;-71
2022/07/22 10:28:34;;;;;;;3.45;2.45;;;;;;;24.94;42.03;101216.81;5011632;28;20042;-71
2022/07/22 10:31:25;;;;;;;5.68;2.30;;;;;;;25.59;40.80;101213.69;5012152;28;20453;-70
2022/07/22 10:33:54;;;;;;;7.27;2.30;;;;;;;25.92;40.21;101223.00;5011036;28;20053;-70
2022/07/22 10:36:32;;;;;;;3.38;2.20;;;;;;;25.98;40.36;101213.75;5009966;28;20044;-70
2022/07/22 10:39:08;;;;;;;3.47;2.15;;;;;;;26.04;39.71;101207.25;5011613;28;20399;-71
2022/07/22 10:41:40;;;;;;;2.22;1.92;;;;;;;26.04;39.80;101204.50;5012134;28;20069;-70
2022/07/22 10:44:08;;;;;;;4.00;2.10;;;;;;;26.22;39.31;101202.59;5011018;28;20053;-69
2022/07/22 10:46:58;;;;;;;3.72;2.20;;;;;;;26.93;38.16;101206.28;5011335;28;20136;-71
2022/07/22 10:49:25;;;;;;;7.13;2.50;;;;;;;26.58;38.77;101214.06;5011761;28;20092;-71
2022/07/22 10:52:07;;;;;;;3.40;2.15;;;;;;;26.45;39.17;101207.88;5011009;28;20133;-71
2022/07/22 10:55:17;;;;;;;2.30;2.10;;;;;;;25.97;39.47;101205.78;5011346;28;20046;-71
2022/07/22 10:57:44;;;;;;;7.38;1.90;;;;;;;26.61;38.06;101208.06;5012080;28;20128;-71
2022/07/22 11:00:11;;;;;;;2.38;1.92;;;;;;;26.52;38.52;101214.03;5010391;28;20133;-71
2022/07/22 11:02:38;;;;;;;2.28;2.08;;;;;;;26.25;38.90;101210.34;5011593;28;20144;-71
2022/07/22 11:05:07;;;;;;;4.50;2.10;;;;;;;25.92;39.68;101209.25;5009650;28;20060;-71
2022/07/22 11:07:40;;;;;;;2.42;2.17;;;;;;;25.68;40.35;101213.28;5011021;28;20077;-71
2022/07/22 11:10:11;;;;;;;3.10;2.53;;;;;;;25.13;41.90;101212.84;5012284;28;20066;-71
2022/07/22 11:12:45;;;;;;;5.32;2.10;;;;;;;25.44;40.97;101213.38;5011565;28;20048;-71
2022/07/22 11:15:12;;;;;;;3.38;2.50;;;;;;;24.98;42.18;101212.50;5009946;28;20473;-71
2022/07/22 11:17:39;;;;;;;4.25;2.50;;;;;;;25.31;41.75;101217.28;5011906;28;20128;-71
2022/07/22 11:20:09;;;;;;;6.70;2.50;;;;;;;25.36;41.58;101220.13;5011861;28;20065;-71
2022/07/22 11:22:36;;;;;;;7.57;2.60;;;;;;;24.54;43.34;101225.91;5012401;28;20045;-71
2022/07/22 11:25:06;;;;;;;7.43;2.63;;;;;;;24.47;43.62;101216.94;5012231;28;20551;-70
2022/07/22 11:27:33;;;;;;;5.70;2.50;;;;;;;24.86;42.83;101206.25;5011256;28;20128;-71
2022/07/22 11:30:00;;;;;;;9.23;5.30;;;;;;;24.85;43.02;101216.41;5012614;28;20163;-71